Time;durP1;ratioP1;P1;durP2;ratioP2;P2;SDS_P1;SDS_P2;PMS_P1;PMS_P2;Temp;Humidity;BMP_temperature;BMP_pressure;BME280_temperature;BME280_humidity;BME280_pressure;Samples;Min_cycle;Max_cycle;Signal;HPM_P1;HPM_P2
2022/01/22 00:00:56;;;;;;;1.97;1.77;;;;;;;18.19;44.53;101992.48;;;;-57
2022/01/22 00:03:56;;;;;;;2.58;1.69;;;;;;;18.16;44.57;101994.26;;;;-58
2022/01/22 00:06:58;;;;;;;2.23;1.66;;;;;;;18.15;44.56;101994.92;;;;-56
2022/01/22 00:10:00;;;;;;;1.82;1.66;;;;;;;18.14;44.55;102001.00;;;;-57
2022/01/22 00:14:23;;;;;;;1.74;1.64;;;;;;;18.12;44.58;102003.27;;;;-57
2022/01/22 00:15:56;;;;;;;2.95;1.71;;;;;;;18.11;44.62;101996.64;;;;-57
2022/01/22 00:18:56;;;;;;;2.34;1.66;;;;;;;18.09;44.59;101990.23;;;;-56
2022/01/22 00:21:58;;;;;;;1.99;1.76;;;;;;;18.07;44.60;101986.56;;;;-57
2022/01/22 00:24:59;;;;;;;1.88;1.69;;;;;;;18.06;44.66;101984.46;;;;-58
2022/01/22 00:27:56;;;;;;;1.97;1.67;;;;;;;18.04;44.64;101979.69;;;;-57
2022/01/22 00:30:56;;;;;;;1.89;1.70;;;;;;;18.03;44.59;101979.30;;;;-57
2022/01/22 00:33:56;;;;;;;1.83;1.69;;;;;;;18.01;44.67;101980.77;;;;-58
2022/01/22 00:36:56;;;;;;;1.75;1.60;;;;;;;17.99;44.62;101976.80;;;;-58
2022/01/22 00:39:56;;;;;;;2.44;1.70;;;;;;;17.98;44.64;101970.95;;;;-57
2022/01/22 00:42:57;;;;;;;1.85;1.60;;;;;;;17.97;44.65;101970.56;;;;-57
2022/01/22 00:45:56;;;;;;;1.79;1.69;;;;;;;17.95;44.71;101974.38;;;;-57
2022/01/22 00:48:56;;;;;;;1.85;1.60;;;;;;;17.94;44.65;101979.08;;;;-58
2022/01/22 00:51:56;;;;;;;1.85;1.70;;;;;;;17.93;44.70;101980.95;;;;-57
2022/01/22 00:54:56;;;;;;;2.20;1.57;;;;;;;17.91;44.75;101983.03;;;;-57
2022/01/22 00:57:56;;;;;;;2.41;1.77;;;;;;;17.90;44.77;101981.27;;;;-57
2022/01/22 01:00:56;;;;;;;1.71;1.61;;;;;;;17.89;44.69;101974.11;;;;-56
2022/01/22 01:04:01;;;;;;;1.84;1.64;;;;;;;17.88;44.70;101975.37;;;;-57
2022/01/22 01:06:56;;;;;;;2.25;1.80;;;;;;;17.86;44.73;101966.36;;;;-57
2022/01/22 01:09:56;;;;;;;2.09;1.73;;;;;;;17.84;44.74;101972.22;;;;-57
2022/01/22 01:12:56;;;;;;;2.25;1.70;;;;;;;17.83;44.78;101970.81;;;;-55
2022/01/22 01:16:01;;;;;;;2.11;1.69;;;;;;;17.82;44.74;101974.22;;;;-57
2022/01/22 01:33:59;;;;;;;2.31;1.68;;;;;;;17.74;44.79;101990.41;;;;-54
2022/01/22 01:36:56;;;;;;;1.70;1.60;;;;;;;17.73;44.76;101995.38;;;;-54
2022/01/22 01:40:01;;;;;;;1.73;1.62;;;;;;;17.71;44.85;101989.54;;;;-57
2022/01/22 01:43:06;;;;;;;1.77;1.63;;;;;;;17.71;44.89;101992.13;;;;-57
2022/01/22 01:45:56;;;;;;;2.03;1.71;;;;;;;17.70;44.86;101996.37;;;;-57
2022/01/22 01:48:57;;;;;;;1.78;1.68;;;;;;;17.68;44.89;102000.06;;;;-54
2022/01/22 01:51:59;;;;;;;2.05;1.70;;;;;;;17.67;44.81;102001.55;;;;-55
2022/01/22 01:55:04;;;;;;;1.84;1.68;;;;;;;17.66;44.85;102006.14;;;;-58
2022/01/22 01:57:56;;;;;;;1.78;1.66;;;;;;;17.64;44.83;101998.70;;;;-54
2022/01/22 02:00:56;;;;;;;1.90;1.74;;;;;;;17.64;44.89;101996.13;;;;-54
2022/01/22 02:03:56;;;;;;;2.29;1.80;;;;;;;17.62;44.83;101995.03;;;;-54
2022/01/22 02:06:57;;;;;;;1.94;1.67;;;;;;;17.62;44.91;101999.63;;;;-54
2022/01/22 02:09:58;;;;;;;2.25;1.80;;;;;;;17.61;44.90;102001.30;;;;-54
2022/01/22 02:13:40;;;;;;;2.23;1.81;;;;;;;17.59;44.84;101999.05;;;;-54
2022/01/22 02:23:58;;;;;;;1.70;1.60;;;;;;;17.55;44.94;102004.15;;;;-54
2022/01/22 02:26:56;;;;;;;2.43;1.86;;;;;;;17.54;44.94;102001.22;;;;-54
2022/01/22 02:29:56;;;;;;;2.02;1.67;;;;;;;17.52;44.96;101997.01;;;;-55
2022/01/22 02:33:06;;;;;;;2.25;1.74;;;;;;;17.52;44.97;101991.00;;;;-54
2022/01/22 02:36:00;;;;;;;1.78;1.67;;;;;;;17.51;44.96;101983.40;;;;-54
2022/01/22 02:39:04;;;;;;;1.94;1.75;;;;;;;17.50;44.95;101988.98;;;;-54
2022/01/22 02:41:56;;;;;;;1.91;1.77;;;;;;;17.48;44.95;101986.80;;;;-58
2022/01/22 02:44:56;;;;;;;1.95;1.69;;;;;;;17.48;44.94;101987.53;;;;-57
2022/01/22 02:47:57;;;;;;;1.80;1.70;;;;;;;17.47;44.98;101979.03;;;;-58
2022/01/22 02:50:56;;;;;;;2.03;1.71;;;;;;;17.47;44.99;101975.38;;;;-57
2022/01/22 02:53:57;;;;;;;1.81;1.61;;;;;;;17.45;44.95;101967.33;;;;-54
2022/01/22 02:56:56;;;;;;;2.15;1.90;;;;;;;17.45;45.00;101965.13;;;;-57
2022/01/22 02:59:58;;;;;;;1.83;1.70;;;;;;;17.44;44.93;101962.15;;;;-57
2022/01/22 03:02:57;;;;;;;2.34;1.63;;;;;;;17.42;44.95;101960.86;;;;-57
2022/01/22 03:05:56;;;;;;;1.71;1.61;;;;;;;17.42;44.96;101955.26;;;;-57
2022/01/22 03:08:57;;;;;;;1.92;1.70;;;;;;;17.41;45.02;101956.10;;;;-57
2022/01/22 03:12:16;;;;;;;2.42;1.90;;;;;;;17.41;44.99;101963.72;;;;-57
2022/01/22 03:20:06;;;;;;;1.89;1.74;;;;;;;17.37;44.96;101969.04;;;;-55
2022/01/22 03:23:07;;;;;;;2.19;1.88;;;;;;;17.37;44.99;101973.13;;;;-54
2022/01/22 03:29:00;;;;;;;2.21;1.71;;;;;;;17.35;45.07;101974.30;;;;-58
2022/01/22 03:31:56;;;;;;;1.88;1.72;;;;;;;17.33;45.03;101968.72;;;;-58
2022/01/22 03:35:01;;;;;;;2.42;1.83;;;;;;;17.33;45.01;101968.39;;;;-57
2022/01/22 03:37:57;;;;;;;1.87;1.70;;;;;;;17.31;45.03;101967.50;;;;-58
2022/01/22 03:40:56;;;;;;;2.11;1.85;;;;;;;17.31;45.05;101974.78;;;;-58
2022/01/22 03:43:56;;;;;;;1.81;1.70;;;;;;;17.31;45.06;101980.78;;;;-57
2022/01/22 03:46:56;;;;;;;1.89;1.70;;;;;;;17.29;45.05;101982.81;;;;-57
2022/01/22 03:49:56;;;;;;;2.40;1.83;;;;;;;17.29;45.06;101979.48;;;;-57
2022/01/22 03:52:56;;;;;;;2.16;1.88;;;;;;;17.28;45.06;101979.83;;;;-57
2022/01/22 03:56:02;;;;;;;1.95;1.80;;;;;;;17.27;45.01;101976.72;;;;-56
2022/01/22 03:58:56;;;;;;;2.19;1.95;;;;;;;17.26;45.05;101976.91;;;;-54
2022/01/22 04:03:27;;;;;;;1.91;1.80;;;;;;;17.25;45.09;101975.28;;;;-57
2022/01/22 04:06:32;;;;;;;2.25;1.73;;;;;;;17.24;45.03;101975.95;;;;-54
2022/01/22 04:08:59;;;;;;;2.06;1.80;;;;;;;17.23;45.01;101968.47;;;;-55
2022/01/22 04:11:58;;;;;;;1.99;1.79;;;;;;;17.23;45.02;101971.70;;;;-53
2022/01/22 04:15:01;;;;;;;2.55;1.99;;;;;;;17.21;45.01;101969.69;;;;-54
2022/01/22 04:26:59;;;;;;;2.00;1.80;;;;;;;17.19;45.04;101966.69;;;;-54
2022/01/22 04:29:57;;;;;;;2.00;1.77;;;;;;;17.18;45.07;101965.33;;;;-54
2022/01/22 04:32:56;;;;;;;1.80;1.70;;;;;;;17.17;45.07;101966.78;;;;-54
2022/01/22 04:35:56;;;;;;;2.18;1.87;;;;;;;17.17;45.08;101968.22;;;;-53
2022/01/22 04:38:56;;;;;;;2.05;1.83;;;;;;;17.16;45.08;101967.52;;;;-54
2022/01/22 04:41:57;;;;;;;2.14;1.93;;;;;;;17.15;45.04;101965.96;;;;-54
2022/01/22 04:45:01;;;;;;;1.80;1.70;;;;;;;17.15;45.02;101964.48;;;;-54
2022/01/22 04:48:11;;;;;;;2.01;1.64;;;;;;;17.14;45.06;101961.28;;;;-54
2022/01/22 04:56:56;;;;;;;2.10;1.90;;;;;;;17.11;45.05;101953.81;;;;-55
2022/01/22 04:59:56;;;;;;;2.08;1.88;;;;;;;17.10;45.11;101959.70;;;;-58
2022/01/22 05:02:56;;;;;;;2.07;1.80;;;;;;;17.09;45.04;101960.05;;;;-57
2022/01/22 05:05:57;;;;;;;2.01;1.80;;;;;;;17.09;45.12;101963.86;;;;-57
2022/01/22 05:08:56;;;;;;;2.53;1.80;;;;;;;17.09;45.11;101966.59;;;;-57
2022/01/22 05:11:56;;;;;;;2.26;1.99;;;;;;;17.08;45.05;101974.16;;;;-57
2022/01/22 05:14:56;;;;;;;2.32;1.98;;;;;;;17.07;45.10;101982.31;;;;-57
2022/01/22 05:17:57;;;;;;;2.01;1.85;;;;;;;17.07;45.07;101980.20;;;;-57
2022/01/22 05:21:05;;;;;;;2.32;1.66;;;;;;;17.05;45.07;101984.35;;;;-57
2022/01/22 05:24:00;;;;;;;2.25;1.82;;;;;;;17.05;45.10;101986.62;;;;-54
2022/01/22 05:27:33;;;;;;;1.93;1.77;;;;;;;17.05;45.10;101984.58;;;;-55
2022/01/22 05:30:06;;;;;;;2.03;1.83;;;;;;;17.03;45.11;101981.03;;;;-58
2022/01/22 05:33:03;;;;;;;2.01;1.79;;;;;;;17.02;45.08;101975.64;;;;-57
2022/01/22 05:38:56;;;;;;;1.93;1.82;;;;;;;17.02;45.14;101971.83;;;;-54
2022/01/22 05:41:56;;;;;;;2.41;1.91;;;;;;;17.01;45.15;101970.58;;;;-54
2022/01/22 05:44:56;;;;;;;2.07;1.85;;;;;;;17.02;45.16;101970.38;;;;-54
2022/01/22 05:47:56;;;;;;;2.26;1.85;;;;;;;17.03;45.12;101977.12;;;;-57
2022/01/22 05:51:00;;;;;;;1.99;1.82;;;;;;;17.04;45.19;101977.75;;;;-57
2022/01/22 05:54:20;;;;;;;2.00;1.80;;;;;;;17.06;45.16;101988.69;;;;-57
2022/01/22 05:59:56;;;;;;;1.85;1.74;;;;;;;17.09;45.12;101992.45;;;;-58
2022/01/22 06:02:56;;;;;;;1.87;1.76;;;;;;;17.11;45.14;101985.97;;;;-54
2022/01/22 06:05:56;;;;;;;2.10;1.80;;;;;;;17.14;45.22;101984.04;;;;-54
2022/01/22 06:08:59;;;;;;;1.93;1.79;;;;;;;17.17;45.16;101986.62;;;;-58
2022/01/22 06:12:03;;;;;;;1.70;1.60;;;;;;;17.20;45.19;101995.14;;;;-57
2022/01/22 06:14:56;;;;;;;1.81;1.71;;;;;;;17.22;45.20;101990.41;;;;-58
2022/01/22 06:17:56;;;;;;;1.77;1.67;;;;;;;17.26;45.18;101991.17;;;;-58
2022/01/22 06:20:56;;;;;;;1.79;1.62;;;;;;;17.29;45.23;101990.74;;;;-54
2022/01/22 06:23:56;;;;;;;1.91;1.77;;;;;;;17.31;45.18;101990.84;;;;-57
2022/01/22 06:26:56;;;;;;;1.83;1.70;;;;;;;17.35;45.18;101998.77;;;;-58
2022/01/22 06:29:56;;;;;;;2.41;1.70;;;;;;;17.36;45.22;101995.40;;;;-55
2022/01/22 06:32:56;;;;;;;7.75;4.21;;;;;;;17.14;43.71;102010.58;;;;-59
2022/01/22 06:35:56;;;;;;;7.45;5.27;;;;;;;17.03;43.47;102012.52;;;;-50
2022/01/22 06:39:09;;;;;;;7.17;5.51;;;;;;;16.90;43.16;102025.28;;;;-59
2022/01/22 06:41:56;;;;;;;9.25;5.84;;;;;;;16.87;43.58;102021.97;;;;-58
2022/01/22 06:44:56;;;;;;;6.97;4.91;;;;;;;16.97;43.84;102019.89;;;;-58
2022/01/22 06:47:56;;;;;;;7.12;4.43;;;;;;;17.05;44.10;102021.52;;;;-61
2022/01/22 06:50:58;;;;;;;7.55;4.04;;;;;;;17.11;44.23;102027.36;;;;-62
2022/01/22 06:53:56;;;;;;;8.49;3.63;;;;;;;17.15;44.05;102029.78;;;;-59
2022/01/22 06:56:56;;;;;;;4.37;3.35;;;;;;;17.19;44.02;102035.55;;;;-53
2022/01/22 06:59:58;;;;;;;6.73;3.56;;;;;;;17.23;44.21;102031.99;;;;-54
2022/01/22 07:02:56;;;;;;;8.75;3.07;;;;;;;17.26;44.46;102035.18;;;;-52
2022/01/22 07:05:56;;;;;;;4.36;3.18;;;;;;;17.29;44.47;102046.81;;;;-54
2022/01/22 07:08:56;;;;;;;4.79;2.96;;;;;;;17.32;44.57;102050.65;;;;-53
2022/01/22 07:11:56;;;;;;;3.89;2.66;;;;;;;17.34;44.67;102048.14;;;;-50
2022/01/22 07:14:56;;;;;;;4.41;2.77;;;;;;;17.36;44.59;102054.56;;;;-63
2022/01/22 07:17:56;;;;;;;5.00;3.19;;;;;;;17.37;44.69;102057.45;;;;-58
2022/01/22 07:20:56;;;;;;;4.35;3.00;;;;;;;17.39;44.69;102068.83;;;;-60
2022/01/22 07:24:26;;;;;;;3.86;2.59;;;;;;;17.41;44.79;102064.13;;;;-61
2022/01/22 07:26:56;;;;;;;5.08;2.62;;;;;;;17.41;44.68;102061.18;;;;-62
2022/01/22 07:29:56;;;;;;;4.53;2.58;;;;;;;17.43;44.81;102063.81;;;;-62
2022/01/22 07:32:56;;;;;;;4.61;2.73;;;;;;;17.43;45.06;102054.20;;;;-58
2022/01/22 07:35:56;;;;;;;3.39;2.59;;;;;;;17.42;44.82;102051.88;;;;-50
2022/01/22 07:38:56;;;;;;;3.22;2.39;;;;;;;17.42;44.74;102060.55;;;;-50
2022/01/22 07:41:56;;;;;;;3.60;2.68;;;;;;;17.41;44.73;102049.22;;;;-51
2022/01/22 07:44:56;;;;;;;3.88;2.54;;;;;;;17.40;44.68;102050.48;;;;-51
2022/01/22 07:47:56;;;;;;;5.10;2.50;;;;;;;17.38;44.65;102050.75;;;;-51
2022/01/22 07:50:56;;;;;;;3.33;2.30;;;;;;;17.37;44.69;102048.93;;;;-51
2022/01/22 07:53:56;;;;;;;3.91;2.46;;;;;;;17.36;44.69;102046.53;;;;-51
2022/01/22 07:56:56;;;;;;;2.47;2.10;;;;;;;17.36;44.62;102045.55;;;;-50
2022/01/22 07:59:56;;;;;;;2.89;2.39;;;;;;;17.35;44.62;102047.27;;;;-50
2022/01/22 08:02:56;;;;;;;2.67;2.35;;;;;;;17.33;44.71;102049.78;;;;-51
2022/01/22 08:05:56;;;;;;;2.81;2.28;;;;;;;17.32;44.67;102048.70;;;;-50
2022/01/22 08:08:56;;;;;;;2.89;2.29;;;;;;;17.31;44.64;102049.33;;;;-50
2022/01/22 08:11:56;;;;;;;2.48;2.18;;;;;;;17.31;44.67;102051.31;;;;-58
2022/01/22 08:14:56;;;;;;;2.96;2.39;;;;;;;17.30;44.64;102050.89;;;;-51
2022/01/22 08:18:00;;;;;;;2.77;2.11;;;;;;;17.30;44.66;102053.39;;;;-50
2022/01/22 08:20:56;;;;;;;2.63;2.10;;;;;;;17.28;44.66;102056.17;;;;-49
2022/01/22 08:23:57;;;;;;;3.17;2.27;;;;;;;17.28;44.63;102054.15;;;;-50
2022/01/22 08:27:09;;;;;;;2.61;2.24;;;;;;;17.28;44.66;102067.42;;;;-50
2022/01/22 08:29:56;;;;;;;3.09;2.21;;;;;;;17.28;44.66;102071.16;;;;-51
2022/01/22 08:33:20;;;;;;;2.57;2.15;;;;;;;17.27;44.67;102066.59;;;;-50
2022/01/22 08:35:57;;;;;;;2.45;2.18;;;;;;;17.27;44.68;102061.23;;;;-58
2022/01/22 08:38:56;;;;;;;2.72;2.17;;;;;;;17.26;44.68;102055.39;;;;-51
2022/01/22 08:41:56;;;;;;;2.45;1.99;;;;;;;17.26;44.65;102064.14;;;;-51
2022/01/22 08:44:56;;;;;;;2.42;2.07;;;;;;;17.26;44.68;102066.04;;;;-51
2022/01/22 08:47:56;;;;;;;2.45;2.13;;;;;;;17.27;44.64;102062.29;;;;-51
2022/01/22 08:50:56;;;;;;;2.96;2.18;;;;;;;17.26;44.67;102063.01;;;;-51
2022/01/22 08:53:58;;;;;;;2.53;2.11;;;;;;;17.26;44.66;102071.23;;;;-51
2022/01/22 08:56:56;;;;;;;5.24;2.01;;;;;;;17.27;44.88;102074.78;;;;-56
2022/01/22 08:59:56;;;;;;;3.18;2.15;;;;;;;17.30;45.22;102079.81;;;;-58
2022/01/22 09:02:56;;;;;;;3.68;2.11;;;;;;;17.32;45.48;102077.08;;;;-59
2022/01/22 09:05:56;;;;;;;4.56;1.91;;;;;;;17.37;45.64;102079.56;;;;-56
2022/01/22 09:09:05;;;;;;;3.35;2.17;;;;;;;17.43;45.73;102086.14;;;;-54
2022/01/22 09:11:56;;;;;;;3.25;2.27;;;;;;;17.49;45.62;102096.44;;;;-59
2022/01/22 09:14:56;;;;;;;2.89;2.10;;;;;;;17.56;45.65;102095.24;;;;-60
2022/01/22 09:17:56;;;;;;;2.88;2.19;;;;;;;17.62;45.69;102100.59;;;;-62
2022/01/22 09:21:04;;;;;;;3.01;2.29;;;;;;;17.69;45.70;102098.99;;;;-60
2022/01/22 09:23:56;;;;;;;4.56;2.13;;;;;;;17.74;45.67;102104.21;;;;-53
2022/01/22 09:26:59;;;;;;;2.68;2.00;;;;;;;17.82;45.58;102115.72;;;;-55
2022/01/22 09:29:56;;;;;;;3.86;1.97;;;;;;;17.86;45.29;102116.82;;;;-60
2022/01/22 09:32:56;;;;;;;5.41;2.00;;;;;;;17.91;45.42;102122.55;;;;-60
2022/01/22 09:35:56;;;;;;;4.06;2.11;;;;;;;17.93;45.28;102120.60;;;;-51
2022/01/22 09:38:56;;;;;;;3.19;2.21;;;;;;;17.96;45.22;102124.10;;;;-53
2022/01/22 09:41:56;;;;;;;3.06;2.21;;;;;;;18.02;45.34;102127.09;;;;-47
2022/01/22 09:44:56;;;;;;;3.06;2.00;;;;;;;18.02;44.99;102131.32;;;;-50
2022/01/22 09:47:58;;;;;;;3.04;1.99;;;;;;;18.03;44.94;102136.17;;;;-47
2022/01/22 09:50:56;;;;;;;2.67;1.97;;;;;;;18.06;45.19;102137.72;;;;-47
2022/01/22 09:53:56;;;;;;;3.07;2.13;;;;;;;18.13;45.46;102147.22;;;;-59
2022/01/22 09:56:58;;;;;;;2.39;1.96;;;;;;;18.15;45.91;102143.58;;;;-51
2022/01/22 09:59:56;;;;;;;4.97;2.07;;;;;;;18.20;45.92;102143.06;;;;-53
2022/01/22 10:02:56;;;;;;;9.13;2.20;;;;;;;18.24;46.24;102145.98;;;;-51
2022/01/22 10:05:56;;;;;;;4.50;2.12;;;;;;;18.28;45.99;102151.53;;;;-52
2022/01/22 10:08:58;;;;;;;4.37;1.99;;;;;;;18.32;46.03;102146.65;;;;-51
2022/01/22 10:11:56;;;;;;;3.18;2.09;;;;;;;18.37;46.04;102150.28;;;;-51
2022/01/22 10:14:56;;;;;;;3.70;2.17;;;;;;;18.42;45.79;102150.38;;;;-53
2022/01/22 10:17:57;;;;;;;4.32;2.19;;;;;;;18.44;45.74;102142.66;;;;-57
2022/01/22 10:20:56;;;;;;;3.89;2.02;;;;;;;18.48;45.71;102144.20;;;;-53
2022/01/22 10:23:56;;;;;;;3.27;2.03;;;;;;;18.53;45.71;102136.32;;;;-52
2022/01/22 10:26:56;;;;;;;4.21;1.81;;;;;;;18.56;45.82;102143.77;;;;-52
2022/01/22 10:29:57;;;;;;;5.47;2.07;;;;;;;18.61;45.78;102133.53;;;;-51
2022/01/22 10:33:04;;;;;;;5.67;2.00;;;;;;;18.67;45.58;102135.14;;;;-51
2022/01/22 10:35:56;;;;;;;2.68;1.89;;;;;;;18.66;45.17;102138.13;;;;-50
2022/01/22 10:38:56;;;;;;;3.61;1.85;;;;;;;18.68;45.11;102126.91;;;;-46
2022/01/22 10:41:56;;;;;;;4.19;2.22;;;;;;;18.72;45.41;102124.21;;;;-53
2022/01/22 10:44:56;;;;;;;3.79;1.99;;;;;;;18.76;45.48;102123.80;;;;-59
2022/01/22 10:47:56;;;;;;;3.67;2.01;;;;;;;18.81;45.47;102127.24;;;;-59
2022/01/22 10:50:56;;;;;;;3.25;1.94;;;;;;;18.85;45.45;102128.19;;;;-56
2022/01/22 10:53:58;;;;;;;2.45;1.81;;;;;;;18.87;45.27;102120.48;;;;-61
2022/01/22 10:56:56;;;;;;;2.45;1.80;;;;;;;18.89;45.26;102115.98;;;;-57
2022/01/22 10:59:58;;;;;;;2.76;1.80;;;;;;;18.92;45.15;102112.42;;;;-56
2022/01/22 11:02:56;;;;;;;2.52;1.79;;;;;;;18.94;45.24;102112.02;;;;-49
2022/01/22 11:05:56;;;;;;;2.34;1.82;;;;;;;18.98;45.40;102113.20;;;;-52
2022/01/22 11:08:56;;;;;;;2.65;1.93;;;;;;;19.01;45.17;102114.55;;;;-57
2022/01/22 11:11:56;;;;;;;3.79;1.90;;;;;;;19.05;45.22;102123.27;;;;-58
2022/01/22 11:14:56;;;;;;;2.57;1.86;;;;;;;19.07;45.28;102117.52;;;;-57
2022/01/22 11:17:56;;;;;;;2.39;1.92;;;;;;;19.11;45.26;102121.44;;;;-65
2022/01/22 11:20:56;;;;;;;2.25;1.71;;;;;;;19.13;45.33;102130.41;;;;-54
2022/01/22 11:23:56;;;;;;;2.30;1.65;;;;;;;19.18;45.42;102125.94;;;;-53
2022/01/22 11:26:56;;;;;;;3.80;1.99;;;;;;;19.18;44.93;102131.61;;;;-53
2022/01/22 11:29:56;;;;;;;2.72;1.80;;;;;;;19.17;44.80;102123.44;;;;-53
2022/01/22 11:32:56;;;;;;;3.67;2.18;;;;;;;19.15;44.65;102122.73;;;;-53
2022/01/22 11:35:56;;;;;;;5.54;2.10;;;;;;;19.16;44.29;102127.97;;;;-52
2022/01/22 11:38:56;;;;;;;2.36;1.75;;;;;;;19.18;44.58;102126.34;;;;-53
2022/01/22 11:41:57;;;;;;;4.76;1.78;;;;;;;19.20;44.68;102127.45;;;;-53
2022/01/22 11:45:02;;;;;;;4.46;2.01;;;;;;;19.21;44.53;102128.45;;;;-53
2022/01/22 11:47:56;;;;;;;3.48;1.80;;;;;;;19.22;44.68;102129.49;;;;-53
2022/01/22 11:50:56;;;;;;;2.25;1.60;;;;;;;19.24;44.62;102124.27;;;;-51
2022/01/22 11:53:56;;;;;;;2.25;1.73;;;;;;;19.24;44.57;102121.51;;;;-50
2022/01/22 11:56:56;;;;;;;3.12;1.92;;;;;;;19.24;44.54;102123.62;;;;-61
2022/01/22 11:59:56;;;;;;;3.48;1.95;;;;;;;19.25;44.66;102121.77;;;;-60
2022/01/22 12:02:56;;;;;;;2.57;1.78;;;;;;;19.24;44.57;102116.80;;;;-62
2022/01/22 12:05:58;;;;;;;3.29;1.72;;;;;;;19.25;44.50;102110.55;;;;-59
2022/01/22 12:10:05;;;;;;;3.11;1.71;;;;;;;19.27;44.55;102111.59;;;;-60
2022/01/22 12:15:57;;;;;;;4.01;1.77;;;;;;;19.27;44.52;102102.17;;;;-57
2022/01/22 12:19:00;;;;;;;3.06;1.80;;;;;;;19.28;44.45;102104.50;;;;-57
2022/01/22 12:21:56;;;;;;;1.89;1.60;;;;;;;19.29;44.44;102099.80;;;;-57
2022/01/22 12:24:56;;;;;;;2.61;1.81;;;;;;;19.30;44.39;102096.59;;;;-56
2022/01/22 12:27:56;;;;;;;2.35;1.74;;;;;;;19.31;44.43;102097.34;;;;-57
2022/01/22 12:30:56;;;;;;;2.10;1.69;;;;;;;19.32;44.38;102094.71;;;;-56
2022/01/22 12:33:56;;;;;;;2.39;1.70;;;;;;;19.31;44.38;102093.28;;;;-53
2022/01/22 12:36:57;;;;;;;2.23;1.60;;;;;;;19.32;44.38;102096.12;;;;-52
2022/01/22 12:39:57;;;;;;;1.86;1.59;;;;;;;19.31;44.41;102095.64;;;;-51
2022/01/22 12:43:06;;;;;;;2.36;1.66;;;;;;;19.31;44.39;102098.33;;;;-57
2022/01/22 12:45:56;;;;;;;2.17;1.64;;;;;;;19.32;44.41;102096.34;;;;-60
2022/01/22 12:48:56;;;;;;;2.64;1.60;;;;;;;19.32;44.40;102104.30;;;;-59
2022/01/22 12:51:56;;;;;;;2.29;1.66;;;;;;;19.32;44.44;102101.63;;;;-53
2022/01/22 12:54:59;;;;;;;2.20;1.69;;;;;;;19.34;44.41;102103.84;;;;-53
2022/01/22 12:57:56;;;;;;;1.65;1.50;;;;;;;19.34;44.36;102101.86;;;;-51
2022/01/22 13:00:56;;;;;;;2.15;1.70;;;;;;;19.35;44.38;102096.34;;;;-57
2022/01/22 13:03:56;;;;;;;1.75;1.61;;;;;;;19.36;44.38;102094.77;;;;-58
2022/01/22 13:06:56;;;;;;;2.32;1.57;;;;;;;19.38;44.34;102094.55;;;;-57
2022/01/22 13:09:59;;;;;;;2.12;1.56;;;;;;;19.39;44.36;102095.18;;;;-56
2022/01/22 13:12:57;;;;;;;1.67;1.57;;;;;;;19.41;44.35;102089.62;;;;-53
2022/01/22 13:15:56;;;;;;;1.73;1.54;;;;;;;19.42;44.34;102090.30;;;;-60
2022/01/22 13:18:58;;;;;;;1.95;1.71;;;;;;;19.43;44.36;102094.66;;;;-57
2022/01/22 13:21:56;;;;;;;3.71;1.61;;;;;;;19.46;44.58;102091.61;;;;-55
2022/01/22 13:24:56;;;;;;;3.15;2.02;;;;;;;19.47;44.65;102089.50;;;;-54
2022/01/22 13:27:56;;;;;;;2.08;1.59;;;;;;;19.51;44.63;102091.26;;;;-56
2022/01/22 13:31:01;;;;;;;3.94;1.86;;;;;;;19.55;44.63;102086.14;;;;-57
2022/01/22 13:34:11;;;;;;;2.37;1.69;;;;;;;19.58;44.72;102085.45;;;;-55
2022/01/22 13:37:29;;;;;;;8.84;2.00;;;;;;;19.64;44.78;102084.42;;;;-61
2022/01/22 13:40:22;;;;;;;4.57;1.61;;;;;;;19.68;45.03;102085.94;;;;-61
2022/01/22 13:48:56;;;;;;;3.19;2.11;;;;;;;19.84;45.18;102070.37;;;;-52
2022/01/22 13:51:57;;;;;;;4.21;2.17;;;;;;;19.85;45.00;102072.82;;;;-51
2022/01/22 13:54:56;;;;;;;10.89;2.13;;;;;;;19.83;44.73;102070.80;;;;-52
2022/01/22 13:57:56;;;;;;;4.33;1.91;;;;;;;19.79;44.50;102076.05;;;;-50
2022/01/22 14:01:03;;;;;;;3.04;1.65;;;;;;;19.77;44.48;102081.35;;;;-58
2022/01/22 14:03:56;;;;;;;3.49;1.81;;;;;;;19.76;44.60;102082.48;;;;-60
2022/01/22 14:06:56;;;;;;;2.29;1.68;;;;;;;19.75;44.47;102083.58;;;;-52
2022/01/22 14:09:56;;;;;;;2.46;1.77;;;;;;;19.75;44.47;102080.48;;;;-53
2022/01/22 14:12:59;;;;;;;2.21;1.69;;;;;;;19.74;44.43;102077.78;;;;-53
2022/01/22 14:15:56;;;;;;;3.55;2.07;;;;;;;19.77;44.56;102080.14;;;;-54
2022/01/22 14:18:56;;;;;;;5.79;3.53;;;;;;;19.79;44.51;102079.79;;;;-56
2022/01/22 14:21:56;;;;;;;8.71;3.62;;;;;;;19.81;44.29;102078.40;;;;-56
2022/01/22 14:24:56;;;;;;;8.11;2.74;;;;;;;19.78;44.18;102073.03;;;;-55
2022/01/22 14:27:56;;;;;;;3.45;2.42;;;;;;;19.77;44.31;102077.62;;;;-59
2022/01/22 14:30:56;;;;;;;3.77;2.51;;;;;;;19.81;44.46;102071.39;;;;-59
2022/01/22 14:33:56;;;;;;;4.85;2.48;;;;;;;19.82;44.61;102073.56;;;;-52
2022/01/22 14:36:56;;;;;;;5.81;2.89;;;;;;;19.85;44.63;102075.91;;;;-52
2022/01/22 14:45:56;;;;;;;4.25;2.51;;;;;;;19.92;44.70;102080.34;;;;-51
2022/01/22 14:48:56;;;;;;;6.10;2.59;;;;;;;19.96;44.61;102080.80;;;;-55
2022/01/22 14:51:56;;;;;;;5.20;2.58;;;;;;;19.98;44.62;102080.53;;;;-63
2022/01/22 14:54:56;;;;;;;11.13;2.67;;;;;;;20.00;44.57;102086.12;;;;-58
2022/01/22 14:57:56;;;;;;;6.15;2.71;;;;;;;19.99;44.43;102091.08;;;;-60
2022/01/22 15:00:56;;;;;;;6.87;2.77;;;;;;;20.01;44.38;102086.83;;;;-52
2022/01/22 15:03:56;;;;;;;4.90;2.81;;;;;;;20.05;44.53;102092.56;;;;-51
2022/01/22 15:06:56;;;;;;;4.90;2.71;;;;;;;20.06;44.52;102091.76;;;;-58
2022/01/22 15:09:56;;;;;;;3.91;2.64;;;;;;;20.12;44.74;102095.20;;;;-51
2022/01/22 15:12:56;;;;;;;3.39;2.51;;;;;;;20.14;44.71;102098.10;;;;-57
2022/01/22 15:16:00;;;;;;;4.57;2.62;;;;;;;20.15;44.67;102100.52;;;;-57
2022/01/22 15:19:01;;;;;;;3.93;2.57;;;;;;;20.16;44.81;102094.42;;;;-54
2022/01/22 15:21:56;;;;;;;4.70;2.70;;;;;;;20.16;44.66;102098.75;;;;-58
2022/01/22 15:24:56;;;;;;;4.03;2.57;;;;;;;20.16;44.74;102099.06;;;;-55
2022/01/22 15:27:56;;;;;;;3.95;2.57;;;;;;;20.16;44.74;102101.02;;;;-60
2022/01/22 15:30:56;;;;;;;3.22;2.47;;;;;;;20.15;44.71;102107.03;;;;-58
2022/01/22 15:34:07;;;;;;;7.73;2.74;;;;;;;20.19;45.01;102117.17;;;;-50
2022/01/22 15:36:56;;;;;;;3.90;2.59;;;;;;;20.21;44.88;102119.14;;;;-51
2022/01/22 15:39:56;;;;;;;3.77;2.52;;;;;;;20.22;44.76;102123.59;;;;-51
2022/01/22 15:42:56;;;;;;;5.19;2.52;;;;;;;20.26;44.85;102123.95;;;;-54
2022/01/22 15:45:56;;;;;;;3.55;2.49;;;;;;;20.25;44.81;102125.45;;;;-55
2022/01/22 15:48:56;;;;;;;3.36;2.58;;;;;;;20.24;44.71;102129.43;;;;-59
2022/01/22 15:51:56;;;;;;;5.75;3.49;;;;;;;20.16;43.72;102133.17;;;;-54
2022/01/22 15:54:56;;;;;;;5.97;3.54;;;;;;;20.08;43.62;102140.33;;;;-51
2022/01/22 15:57:57;;;;;;;5.89;3.51;;;;;;;20.09;43.86;102139.16;;;;-56
2022/01/22 16:00:56;;;;;;;4.98;3.19;;;;;;;20.11;43.98;102138.73;;;;-52
2022/01/22 16:03:57;;;;;;;7.59;3.21;;;;;;;20.14;44.10;102136.05;;;;-59
2022/01/22 16:07:07;;;;;;;4.63;2.99;;;;;;;20.16;44.03;102142.05;;;;-57
2022/01/22 16:09:56;;;;;;;11.80;2.95;;;;;;;20.21;44.42;102139.98;;;;-53
2022/01/22 16:12:56;;;;;;;10.48;2.93;;;;;;;20.24;44.51;102143.19;;;;-55
2022/01/22 16:15:56;;;;;;;8.14;2.99;;;;;;;20.26;44.40;102141.30;;;;-58
2022/01/22 16:18:56;;;;;;;4.89;2.83;;;;;;;20.29;44.34;102142.51;;;;-56
2022/01/22 16:21:57;;;;;;;5.67;2.97;;;;;;;20.29;44.40;102147.97;;;;-54
2022/01/22 16:24:56;;;;;;;4.77;2.68;;;;;;;20.32;44.32;102151.56;;;;-56
2022/01/22 16:27:56;;;;;;;4.33;2.71;;;;;;;20.36;44.30;102156.34;;;;-55
2022/01/22 16:30:56;;;;;;;3.87;2.59;;;;;;;20.35;44.40;102152.71;;;;-58
2022/01/22 16:33:56;;;;;;;8.35;3.00;;;;;;;20.39;44.47;102157.80;;;;-60
2022/01/22 16:36:56;;;;;;;5.50;2.85;;;;;;;20.42;44.37;102153.42;;;;-58
2022/01/22 16:39:59;;;;;;;5.25;2.66;;;;;;;20.43;44.28;102149.61;;;;-53
2022/01/22 16:43:03;;;;;;;6.37;2.82;;;;;;;20.44;44.36;102146.89;;;;-59
2022/01/22 16:46:23;;;;;;;6.83;2.69;;;;;;;20.45;44.34;102146.33;;;;-58
2022/01/22 16:52:05;;;;;;;3.35;2.54;;;;;;;20.47;44.42;102153.88;;;;-59
2022/01/22 16:55:02;;;;;;;3.01;2.30;;;;;;;20.50;44.43;102152.81;;;;-59
2022/01/22 16:58:01;;;;;;;4.85;2.53;;;;;;;20.48;44.40;102154.99;;;;-59
2022/01/22 17:01:00;;;;;;;3.35;2.54;;;;;;;20.48;44.44;102155.88;;;;-59
2022/01/22 17:03:57;;;;;;;4.57;2.40;;;;;;;20.51;44.40;102155.55;;;;-58
2022/01/22 17:06:56;;;;;;;3.41;2.31;;;;;;;20.46;44.17;102161.77;;;;-54
2022/01/22 17:10:10;;;;;;;4.42;2.61;;;;;;;20.43;44.22;102162.97;;;;-54
2022/01/22 17:15:56;;;;;;;4.53;2.45;;;;;;;20.43;44.28;102173.88;;;;-52
2022/01/22 17:18:56;;;;;;;3.29;2.37;;;;;;;20.41;44.42;102174.06;;;;-51
2022/01/22 17:21:56;;;;;;;3.20;2.28;;;;;;;20.42;44.39;102173.55;;;;-50
2022/01/22 17:24:56;;;;;;;2.63;2.19;;;;;;;20.42;44.51;102176.92;;;;-59
2022/01/22 17:27:56;;;;;;;2.85;2.34;;;;;;;20.43;44.48;102182.76;;;;-57
2022/01/22 17:30:56;;;;;;;4.86;2.34;;;;;;;20.44;44.55;102185.57;;;;-59
2022/01/22 17:33:56;;;;;;;4.74;2.40;;;;;;;20.42;44.23;102184.38;;;;-62
2022/01/22 17:36:56;;;;;;;4.09;2.06;;;;;;;20.43;44.73;102188.62;;;;-58
2022/01/22 17:39:56;;;;;;;4.63;2.43;;;;;;;20.45;44.67;102196.98;;;;-60
2022/01/22 17:42:56;;;;;;;3.66;2.36;;;;;;;20.47;44.90;102195.09;;;;-58
2022/01/22 17:45:56;;;;;;;2.59;2.10;;;;;;;20.51;45.11;102194.41;;;;-57
2022/01/22 17:48:56;;;;;;;3.19;2.03;;;;;;;20.50;45.04;102188.84;;;;-55
2022/01/22 17:51:56;;;;;;;4.62;2.25;;;;;;;20.53;45.30;102188.02;;;;-52
2022/01/22 17:54:56;;;;;;;3.56;2.21;;;;;;;20.54;45.27;102184.62;;;;-55
2022/01/22 17:57:56;;;;;;;3.70;2.15;;;;;;;20.57;45.78;102189.05;;;;-56